Time;durP1;ratioP1;P1;durP2;ratioP2;P2;SDS_P1;SDS_P2;PMS_P1;PMS_P2;Temp;Humidity;BMP_temperature;BMP_pressure;BME280_temperature;BME280_humidity;BME280_pressure;Samples;Min_cycle;Max_cycle;Signal;HPM_P1;HPM_P2
2023/11/25 00:02:51;;;;;;;5.50;1.60;;;;;;;2.57;88.82;98165.24;129411;1266;114761;-60
2023/11/25 00:05:54;;;;;;;4.50;1.60;;;;;;;2.56;88.94;98164.74;129451;1259;115162;-58
2023/11/25 00:08:56;;;;;;;1.70;1.50;;;;;;;2.56;88.79;98163.71;129479;1265;115337;-59
2023/11/25 00:11:59;;;;;;;2.70;1.60;;;;;;;2.56;88.79;98161.80;129453;1282;115329;-58
2023/11/25 00:15:02;;;;;;;3.20;1.60;;;;;;;2.55;88.87;98164.30;129464;1265;115193;-58
2023/11/25 00:18:04;;;;;;;5.40;1.60;;;;;;;2.55;88.90;98164.85;129496;1263;114803;-58
2023/11/25 00:21:06;;;;;;;3.70;1.70;;;;;;;2.54;88.87;98166.80;129525;1263;114943;-58
2023/11/25 00:24:08;;;;;;;3.30;1.50;;;;;;;2.53;88.92;98168.08;129271;1263;115328;-60
2023/11/25 00:27:10;;;;;;;2.10;1.60;;;;;;;2.52;89.11;98171.11;129425;1260;114825;-58
2023/11/25 00:30:14;;;;;;;1.90;1.70;;;;;;;2.52;88.95;98171.86;129450;1265;115145;-58
2023/11/25 00:33:19;;;;;;;2.20;1.50;;;;;;;2.50;89.04;98182.52;129422;1277;114716;-58
2023/11/25 00:36:21;;;;;;;1.90;0.90;;;;;;;2.47;88.86;98237.27;129291;1267;114840;-59
2023/11/25 00:39:23;;;;;;;0.60;0.60;;;;;;;2.32;88.21;98239.44;129400;1282;114841;-60
2023/11/25 01:03:32;;;;;;;;;;;;;;;;;;;;;
2023/11/25 01:15:43;;;;;;;1.70;1.10;;;;;;;1.53;89.21;98247.76;127813;1281;128541;-64
2023/11/25 01:19:45;;;;;;;0.80;0.60;;;;;;;1.50;89.26;98255.95;127013;1284;115251;-62
2023/11/25 01:23:49;;;;;;;1.30;0.90;;;;;;;1.44;89.39;98250.23;121747;1301;5418824;-63
2023/11/25 01:27:40;;;;;;;;;;;;;;;;;;;;;
2023/11/25 01:48:34;;;;;;;4.80;2.40;;;;;;;1.32;89.89;98289.30;127332;1287;116453;-59
2023/11/25 02:00:11;;;;;;;4.00;2.20;;;;;;;1.29;90.16;98320.39;124842;1307;114853;-60
2023/11/25 02:04:13;;;;;;;4.50;1.90;;;;;;;1.29;90.13;98321.11;124861;1307;115667;-59
2023/11/25 02:08:14;;;;;;;3.20;1.80;;;;;;;1.24;90.03;98327.46;124072;1310;129978;-59
2023/11/25 02:20:54;;;;;;;7.20;3.20;;;;;;;1.25;89.92;98342.02;125929;1299;638065;-60
2023/11/25 02:24:58;;;;;;;3.30;2.40;;;;;;;1.23;90.24;98350.92;128197;1278;129738;-58
2023/11/25 02:28:59;;;;;;;7.10;3.10;;;;;;;1.18;90.47;98360.76;127479;1301;115463;-58
2023/11/25 02:33:07;;;;;;;4.70;2.90;;;;;;;1.17;90.21;98365.38;122508;1291;5409592;-58
2023/11/25 02:37:08;;;;;;;3.20;2.80;;;;;;;1.17;90.24;98367.84;125769;1302;114923;-59
2023/11/25 02:41:10;;;;;;;6.60;3.80;;;;;;;1.14;90.29;98376.23;124930;1326;114994;-58
2023/11/25 02:49:34;;;;;;;6.40;3.70;;;;;;;1.11;90.24;98401.70;126009;1294;635862;-58
2023/11/25 02:53:17;;;;;;;4.40;3.50;;;;;;;1.07;90.24;98415.02;128266;1286;128914;-59
2023/11/25 02:57:19;;;;;;;8.40;5.00;;;;;;;1.03;90.15;98422.73;128034;1278;115497;-59
2023/11/25 03:05:28;;;;;;;8.40;4.80;;;;;;;1.03;90.52;98434.19;125899;1299;115541;-57
2023/11/25 03:09:30;;;;;;;7.80;4.60;;;;;;;1.01;90.21;98435.12;125062;1307;128804;-58
2023/11/25 03:22:09;;;;;;;7.40;4.60;;;;;;;1.01;90.43;98452.70;125521;1312;638310;-57
2023/11/25 03:26:12;;;;;;;9.90;5.10;;;;;;;1.01;90.54;98463.27;127361;1283;127892;-58
2023/11/25 03:30:15;;;;;;;11.30;6.00;;;;;;;1.00;90.44;98471.39;127033;1284;115403;-59
2023/11/25 03:34:23;;;;;;;12.60;5.60;;;;;;;0.99;90.36;98474.95;122687;1296;5448602;-58
2023/11/25 03:38:24;;;;;;;10.60;6.50;;;;;;;1.00;90.58;98480.89;125881;1318;115044;-58
2023/11/25 03:42:26;;;;;;;13.30;4.30;;;;;;;1.00;90.31;98485.96;124818;1327;114878;-58
2023/11/25 03:51:02;;;;;;;4.10;3.00;;;;;;;1.04;90.44;98503.95;125981;1298;638738;-58
2023/11/25 03:55:05;;;;;;;8.90;3.70;;;;;;;1.03;90.50;98511.69;128515;1277;128610;-59
2023/11/25 03:59:08;;;;;;;3.50;2.90;;;;;;;1.04;90.60;98514.64;128795;1274;115294;-58
2023/11/25 04:03:11;;;;;;;6.80;2.30;;;;;;;1.06;90.56;98522.14;124066;1275;5502342;-59
2023/11/25 04:07:04;;;;;;;4.50;3.00;;;;;;;1.04;90.48;98527.27;127192;1287;114883;-59
2023/11/25 04:11:13;;;;;;;10.60;5.30;;;;;;;1.05;90.65;98531.45;126454;1310;114862;-59
2023/11/25 04:15:15;;;;;;;10.90;4.90;;;;;;;1.10;90.86;98533.94;125813;1303;114948;-59
2023/11/25 04:19:16;;;;;;;10.20;5.40;;;;;;;1.13;90.77;98533.11;125388;1304;130352;-59
2023/11/25 04:31:53;;;;;;;10.90;5.40;;;;;;;1.22;91.12;98539.77;125569;1311;636316;-57
2023/11/25 04:35:56;;;;;;;10.00;5.60;;;;;;;1.25;91.23;98547.92;127308;1286;128659;-59
2023/11/25 04:39:48;;;;;;;;;;;;;;;;;;;;;
2023/11/25 04:44:06;;;;;;;6.80;4.50;;;;;;;1.27;91.03;98558.92;122252;1298;5764479;-58
2023/11/25 04:48:08;;;;;;;9.90;4.60;;;;;;;1.26;90.91;98560.71;125349;1323;115072;-57
2023/11/25 04:51:59;;;;;;;8.20;4.60;;;;;;;1.22;90.48;98566.52;124736;1330;115008;-60
2023/11/25 05:00:17;;;;;;;6.90;4.10;;;;;;;1.19;90.72;98581.73;125636;1311;635989;-59
2023/11/25 05:04:19;;;;;;;9.50;4.50;;;;;;;1.16;90.82;98581.16;127888;1300;128483;-59
2023/11/25 05:08:10;;;;;;;;;;;;;;;;;;;;;
2023/11/25 05:16:19;;;;;;;4.70;3.20;;;;;;;1.13;90.77;98588.33;124877;1327;114894;-59
2023/11/25 05:24:41;;;;;;;6.50;3.00;;;;;;;1.07;90.74;98606.48;126831;1289;635922;-58
2023/11/25 05:28:34;;;;;;;7.90;3.20;;;;;;;1.00;90.77;98616.06;128460;1276;128774;-61
2023/11/25 05:32:37;;;;;;;5.50;3.30;;;;;;;0.98;91.03;98620.54;128654;1275;115254;-59
2023/11/25 05:40:43;;;;;;;4.60;3.00;;;;;;;1.01;91.21;98627.79;126911;1290;114957;-58
2023/11/25 05:44:45;;;;;;;5.80;2.90;;;;;;;1.04;91.32;98630.50;125823;1317;115050;-58
2023/11/25 05:48:27;;;;;;;6.10;3.10;;;;;;;1.06;91.42;98636.74;125328;1323;128690;-59
2023/11/25 05:56:23;;;;;;;9.40;3.50;;;;;;;1.12;91.60;98647.23;123944;1327;114933;-58
2023/11/25 06:04:37;;;;;;;7.60;2.50;;;;;;;1.15;91.03;98651.69;126902;1291;636021;-58
2023/11/25 06:08:40;;;;;;;6.90;2.80;;;;;;;1.13;91.13;98661.98;127996;1286;128895;-58
2023/11/25 06:12:42;;;;;;;7.00;4.00;;;;;;;1.15;91.53;98666.48;126942;1290;116437;-59
2023/11/25 06:16:48;;;;;;;6.90;3.10;;;;;;;1.18;91.51;98666.71;122118;1299;5419968;-58
2023/11/25 06:20:38;;;;;;;7.20;4.50;;;;;;;1.20;91.37;98671.37;125569;1318;114941;-61
2023/11/25 06:24:40;;;;;;;8.80;4.60;;;;;;;1.21;91.42;98684.20;125162;1326;114782;-59
2023/11/25 06:28:23;;;;;;;6.20;5.50;;;;;;;1.23;91.46;98691.88;124129;1331;115109;-59
2023/11/25 06:31:45;;;;;;;6.70;3.70;;;;;;;1.23;91.63;98696.44;123402;1338;129872;-61
2023/11/25 06:35:35;;;;;;;;;;;;;;;;;;;;;
2023/11/25 06:40:35;;;;;;;7.10;3.40;;;;;;;1.26;91.54;98711.59;125708;1305;639477;-59
2023/11/25 06:44:12;;;;;;;9.20;3.40;;;;;;;1.24;91.35;98732.46;126644;1303;128872;-58
2023/11/25 07:00:22;;;;;;;7.00;5.50;;;;;;;1.24;91.66;98771.14;124405;1331;114885;-59
2023/11/25 07:12:59;;;;;;;5.80;3.00;;;;;;;1.23;91.94;98783.49;127801;1283;128926;-59
2023/11/25 07:17:02;;;;;;;8.10;3.10;;;;;;;1.21;91.85;98784.77;127258;1284;115487;-59
2023/11/25 07:21:07;;;;;;;6.70;3.20;;;;;;;1.19;91.60;98791.01;122170;1298;5443349;-59
2023/11/25 07:25:11;;;;;;;6.90;3.10;;;;;;;1.17;91.50;98793.90;125007;1307;114996;-60
2023/11/25 07:29:10;;;;;;;9.30;4.10;;;;;;;1.15;91.53;98799.59;124204;1312;114968;-60
2023/11/25 07:32:54;;;;;;;;;;;;;;;;;;;;;
2023/11/25 07:49:16;;;;;;;4.90;3.10;;;;;;;1.32;91.91;98826.61;126588;1309;115236;-59
2023/11/25 07:53:22;;;;;;;7.60;3.40;;;;;;;1.34;91.76;98835.33;122802;1292;5429799;-59
2023/11/25 07:57:20;;;;;;;5.30;3.70;;;;;;;1.36;91.91;98840.71;125774;1296;115107;-58
2023/11/25 08:01:21;;;;;;;4.80;3.30;;;;;;;1.38;91.75;98849.98;125184;1323;114943;-59
2023/11/25 08:05:21;;;;;;;9.40;3.10;;;;;;;1.40;91.67;98854.27;123863;1311;115001;-59
2023/11/25 08:17:29;;;;;;;8.70;5.10;;;;;;;1.60;91.80;98861.50;126404;1305;635939;-60
2023/11/25 08:24:37;;;;;;;8.90;3.40;;;;;;;1.70;91.57;98870.10;126794;1304;115715;-60
2023/11/25 08:28:40;;;;;;;7.20;4.40;;;;;;;1.74;91.49;98869.97;126900;1290;114870;-59
2023/11/25 08:32:32;;;;;;;;;;;;;;;;;;;;;
2023/11/25 08:37:16;;;;;;;6.60;3.80;;;;;;;1.92;91.93;98877.05;125797;1309;115291;-59
2023/11/25 08:40:52;;;;;;;12.30;7.20;;;;;;;2.03;91.60;98879.27;125870;1307;115042;-60
2023/11/25 08:44:53;;;;;;;17.60;8.90;;;;;;;2.17;91.64;98876.83;125323;1323;129876;-58
2023/11/25 08:48:55;;;;;;;9.40;6.30;;;;;;;2.32;91.26;98873.77;124660;1329;116436;-59
2023/11/25 08:52:57;;;;;;;;;;;;;;;;;;;;;
2023/11/25 09:01:26;;;;;;;9.20;5.00;;;;;;;2.95;90.87;98873.90;125795;1299;636002;-61
2023/11/25 09:05:26;;;;;;;10.30;6.80;;;;;;;2.97;90.55;98871.57;127871;1298;128765;-60
2023/11/25 09:22:07;;;;;;;7.10;3.90;;;;;;;2.89;89.51;98887.23;125549;1305;638951;-65
2023/11/25 09:26:09;;;;;;;9.10;4.60;;;;;;;2.92;89.29;98888.66;127150;1303;128534;-65
2023/11/25 09:30:12;;;;;;;10.90;5.30;;;;;;;3.11;89.71;98887.20;126422;1293;116504;-66
2023/11/25 09:34:16;;;;;;;5.60;3.80;;;;;;;3.30;89.49;98880.93;121818;1309;5488535;-66
2023/11/25 09:38:17;;;;;;;9.20;2.90;;;;;;;3.46;89.30;98878.29;124706;1304;115287;-65
2023/11/25 09:42:19;;;;;;;8.80;3.70;;;;;;;3.57;88.93;98875.71;123842;1326;114861;-66
2023/11/25 09:46:21;;;;;;;9.20;3.10;;;;;;;3.61;88.20;98873.22;123678;1328;115044;-66
2023/11/25 09:55:11;;;;;;;24.00;8.50;;;;;;;3.81;88.11;98872.55;126051;1292;636417;-65
2023/11/25 09:58:52;;;;;;;17.10;6.80;;;;;;;3.84;88.14;98872.75;127965;1281;128872;-65
2023/11/25 10:02:55;;;;;;;15.90;6.70;;;;;;;3.88;88.20;98867.81;127422;1294;115550;-64
2023/11/25 10:07:00;;;;;;;12.10;6.40;;;;;;;3.89;87.88;98871.66;122430;1295;5412102;-65
2023/11/25 10:11:00;;;;;;;13.50;7.00;;;;;;;3.87;87.67;98873.13;125540;1323;114990;-65
2023/11/25 10:15:01;;;;;;;10.60;5.00;;;;;;;3.85;87.60;98870.75;124979;1329;114958;-64
2023/11/25 10:34:56;;;;;;;9.20;5.00;;;;;;;4.08;86.94;98891.80;122575;1292;5441198;-69
2023/11/25 10:43:05;;;;;;;12.50;6.30;;;;;;;4.06;86.73;98891.17;125305;1317;114869;-66
2023/11/25 10:46:55;;;;;;;;;;;;;;;;;;;;;
2023/11/25 10:55:32;;;;;;;9.10;4.00;;;;;;;4.14;86.89;98898.24;125386;1309;638760;-69
2023/11/25 10:59:34;;;;;;;7.20;4.00;;;;;;;4.25;86.22;98893.86;127608;1303;127846;-67
2023/11/25 11:03:38;;;;;;;13.40;5.00;;;;;;;4.35;86.48;98891.98;126789;1290;115246;-65
2023/11/25 11:11:48;;;;;;;8.70;3.70;;;;;;;4.43;85.77;98898.53;125798;1317;114920;-71
2023/11/25 11:15:28;;;;;;;;;;;;;;;4.44;85.64;98898.98;125818;1315;114843;-67
2023/11/25 11:19:28;;;;;;;6.50;3.10;;;;;;;4.42;85.57;98901.37;125742;1310;129697;-69
2023/11/25 11:23:22;;;;;;;;;;;;;;;;;;;;;
2023/11/25 11:31:37;;;;;;;9.00;3.50;;;;;;;4.36;85.85;98904.98;125414;1307;638448;-69
2023/11/25 11:35:39;;;;;;;;;;;;;;;;;;;;;
2023/11/25 11:38:48;;;;;;;15.30;7.00;;;;;;;4.47;86.20;98909.63;127838;1275;116608;-65
2023/11/25 11:42:53;;;;;;;22.30;11.00;;;;;;;4.47;85.96;98914.20;128207;1280;114878;-66
2023/11/25 11:46:04;;;;;;;15.40;8.20;;;;;;;4.45;85.65;98908.50;124759;1277;116601;-65
2023/11/25 11:49:45;;;;;;;13.20;7.80;;;;;;;4.43;85.57;98908.59;128860;1286;114867;-65
2023/11/25 11:58:03;;;;;;;7.10;4.10;;;;;;;4.51;85.62;98902.02;128394;1272;128698;-70
2023/11/25 12:01:28;;;;;;;5.20;3.10;;;;;;;4.62;85.15;98904.70;126566;1308;115359;-67
2023/11/25 12:04:37;;;;;;;5.60;3.20;;;;;;;4.65;85.05;98903.31;127461;1282;115132;-65
2023/11/25 12:07:40;;;;;;;4.10;2.60;;;;;;;4.69;84.96;98899.02;127315;1280;114836;-67
2023/11/25 12:10:44;;;;;;;5.90;2.80;;;;;;;4.75;85.48;98898.25;127358;1286;114990;-67
2023/11/25 12:13:53;;;;;;;4.90;2.50;;;;;;;4.80;85.42;98894.11;127470;1302;128160;-67
2023/11/25 12:16:55;;;;;;;7.50;2.70;;;;;;;4.83;85.40;98893.09;127994;1298;115406;-66
2023/11/25 12:20:30;;;;;;;4.30;1.90;;;;;;;4.84;85.32;98889.14;128148;1276;114824;-66
2023/11/25 12:23:47;;;;;;;4.80;2.30;;;;;;;4.79;84.79;98894.66;128523;1279;114737;-66
2023/11/25 12:26:57;;;;;;;8.10;2.80;;;;;;;4.76;84.72;98896.73;128270;1277;114746;-65
2023/11/25 12:30:06;;;;;;;7.50;4.10;;;;;;;4.75;84.83;98898.40;128544;1293;127886;-65
2023/11/25 12:34:14;;;;;;;6.80;3.40;;;;;;;4.75;84.82;98896.45;128424;1285;115282;-65
2023/11/25 12:38:21;;;;;;;8.00;3.60;;;;;;;4.69;84.22;98895.67;128488;1276;114928;-64
2023/11/25 12:42:28;;;;;;;9.20;3.60;;;;;;;4.56;83.69;98894.73;128620;1276;114894;-65
2023/11/25 12:46:33;;;;;;;9.80;3.10;;;;;;;4.45;83.80;98890.30;127880;1295;115002;-64
2023/11/25 12:50:45;;;;;;;7.20;2.60;;;;;;;4.36;83.63;98888.75;127557;1283;128897;-66
2023/11/25 12:54:56;;;;;;;12.30;4.60;;;;;;;4.27;83.39;98892.72;127079;1286;115307;-64
2023/11/25 12:59:05;;;;;;;17.80;8.20;;;;;;;4.22;83.68;98895.41;125798;1301;114929;-67
2023/11/25 13:03:10;;;;;;;8.90;3.80;;;;;;;4.18;83.55;98900.20;125386;1320;114944;-64
2023/11/25 13:11:35;;;;;;;4.60;2.50;;;;;;;4.17;83.32;98906.27;126197;1292;636306;-65
2023/11/25 13:15:37;;;;;;;6.40;3.10;;;;;;;4.09;83.39;98904.66;128440;1278;128933;-65
2023/11/25 13:19:48;;;;;;;6.20;2.50;;;;;;;4.09;83.67;98901.66;126442;1309;115416;-66
2023/11/25 13:23:52;;;;;;;5.40;2.70;;;;;;;4.06;83.53;98901.98;120976;1305;6169704;-66
2023/11/25 13:27:46;;;;;;;7.80;3.60;;;;;;;4.00;83.37;98899.61;124746;1306;114990;-67
2023/11/25 13:36:11;;;;;;;13.20;5.00;;;;;;;3.85;83.11;98899.73;125883;1300;636531;-65
2023/11/25 13:40:19;;;;;;;16.40;5.50;;;;;;;3.74;83.06;98896.48;128564;1272;129446;-64
2023/11/25 13:44:15;;;;;;;16.10;4.90;;;;;;;3.68;83.13;98905.08;127335;1286;115287;-64
2023/11/25 13:48:19;;;;;;;12.70;4.60;;;;;;;3.58;83.02;98910.96;121985;1316;5491898;-62
2023/11/25 13:52:20;;;;;;;12.30;5.00;;;;;;;3.52;83.64;98911.23;124718;1324;115473;-64
2023/11/25 13:56:13;;;;;;;;;;;;;;;;;;;;;
2023/11/25 14:00:37;;;;;;;14.10;6.20;;;;;;;3.44;83.84;98918.45;126083;1304;635973;-63
2023/11/25 14:04:39;;;;;;;;;;;;;;;;;;;;;
2023/11/25 14:08:45;;;;;;;17.10;7.00;;;;;;;3.31;83.79;98919.52;126836;1289;115327;-63
2023/11/25 14:13:00;;;;;;;22.20;10.00;;;;;;;3.24;83.90;98912.91;122341;1307;5422334;-61
2023/11/25 14:16:36;;;;;;;22.80;8.20;;;;;;;3.18;84.00;98908.40;125001;1323;114865;-65
2023/11/25 14:25:00;;;;;;;17.50;9.40;;;;;;;3.05;84.22;98907.37;126024;1296;635903;-64
2023/11/25 14:28:53;;;;;;;;;;;;;;;;;;;;;
2023/11/25 14:32:57;;;;;;;17.80;10.40;;;;;;;2.84;84.19;98904.52;127611;1279;115466;-64
2023/11/25 14:37:01;;;;;;;18.60;10.40;;;;;;;2.76;84.36;98906.25;127307;1286;5442389;-58
2023/11/25 14:45:03;;;;;;;9.80;4.90;;;;;;;2.60;84.53;98912.17;125156;1323;114916;-57
2023/11/25 14:49:04;;;;;;;11.20;5.20;;;;;;;2.48;84.42;98919.31;124592;1310;115552;-58
2023/11/25 14:57:18;;;;;;;13.20;7.40;;;;;;;2.35;84.92;98920.02;126249;1296;635953;-62
2023/11/25 15:05:23;;;;;;;20.40;8.90;;;;;;;2.26;85.43;98917.67;126352;1311;115339;-61
2023/11/25 15:09:28;;;;;;;16.50;10.00;;;;;;;2.25;85.79;98918.61;122163;1300;5446307;-57
2023/11/25 15:26:00;;;;;;;21.30;13.40;;;;;;;2.01;85.86;98915.80;127240;1287;116068;-58
2023/11/25 15:30:28;;;;;;;50.70;33.10;;;;;;;1.95;85.95;98917.96;122678;1293;5486639;-59
2023/11/25 15:34:07;;;;;;;54.30;35.60;;;;;;;1.88;86.27;98920.50;125368;1303;114974;-62
2023/11/25 15:42:29;;;;;;;24.00;15.10;;;;;;;1.84;86.27;98926.79;126127;1308;635435;-61
2023/11/25 15:46:24;;;;;;;;;;;;;;;;;;;;;
2023/11/25 16:02:33;;;;;;;74.10;33.10;;;;;;;1.85;87.19;98937.52;124628;1329;114816;-61
2023/11/25 16:19:05;;;;;;;39.20;20.50;;;;;;;1.74;87.34;98941.60;127768;1278;115255;-60
2023/11/25 16:23:13;;;;;;;40.70;18.60;;;;;;;1.67;87.35;98936.75;122799;1287;5393645;-60
2023/11/25 16:27:17;;;;;;;32.40;15.80;;;;;;;1.60;87.19;98939.62;126408;1292;114933;-56
2023/11/25 16:31:16;;;;;;;24.20;11.70;;;;;;;1.52;87.24;98938.83;125951;1317;115057;-59
2023/11/25 16:39:40;;;;;;;23.40;12.40;;;;;;;1.40;87.56;98937.85;126250;1295;636077;-59
2023/11/25 16:47:47;;;;;;;33.80;17.00;;;;;;;1.28;87.67;98942.63;126196;1292;115361;-59
2023/11/25 16:51:48;;;;;;;25.50;12.00;;;;;;;1.26;87.91;98939.54;121237;1315;5389613;-58
2023/11/25 16:55:50;;;;;;;21.70;12.40;;;;;;;1.25;88.05;98946.59;124501;1330;115228;-62
2023/11/25 17:04:14;;;;;;;20.70;9.70;;;;;;;1.31;88.48;98950.45;126137;1297;635331;-60
2023/11/25 17:08:41;;;;;;;19.60;9.30;;;;;;;1.35;88.71;98948.73;127224;1304;128742;-63
2023/11/25 17:12:18;;;;;;;32.60;13.40;;;;;;;1.40;89.16;98949.80;127237;1297;115306;-61
2023/11/25 17:16:25;;;;;;;37.80;16.10;;;;;;;1.46;89.44;98952.93;122066;1295;5453394;-60
2023/11/25 17:20:23;;;;;;;37.30;15.50;;;;;;;1.52;89.45;98954.84;124725;1328;115035;-58
2023/11/25 17:28:49;;;;;;;56.40;24.50;;;;;;;1.67;89.46;98955.56;126191;1299;636406;-60
2023/11/25 17:32:50;;;;;;;33.10;14.30;;;;;;;1.72;89.83;98964.04;128307;1294;128721;-60
2023/11/25 17:36:53;;;;;;;25.70;11.70;;;;;;;1.78;89.95;98967.50;127860;1292;116595;-58
2023/11/25 17:40:55;;;;;;;22.70;10.70;;;;;;;1.81;89.60;98971.27;122839;1287;5380642;-59
2023/11/25 17:44:56;;;;;;;35.20;13.20;;;;;;;1.84;89.84;98973.64;125830;1296;116039;-59
2023/11/25 17:48:59;;;;;;;55.80;16.80;;;;;;;1.88;89.87;98976.13;124584;1326;116603;-59
2023/11/25 17:52:59;;;;;;;;;;;;;;;;;;;;;
2023/11/25 18:01:43;;;;;;;34.40;14.70;;;;;;;1.94;89.56;98976.61;125910;1296;636055;-59
2023/11/25 18:05:49;;;;;;;32.00;13.10;;;;;;;1.92;89.51;98974.40;127908;1282;128661;-59
2023/11/25 18:09:58;;;;;;;24.00;10.50;;;;;;;1.87;88.98;98975.98;127090;1287;115249;-58
2023/11/25 18:14:12;;;;;;;24.50;11.40;;;;;;;1.80;89.15;98973.75;121351;1290;6787869;-60
2023/11/25 18:18:11;;;;;;;24.40;11.80;;;;;;;1.73;88.92;98977.16;125407;1302;114948;-58
2023/11/25 18:22:17;;;;;;;26.80;12.50;;;;;;;1.65;89.10;98977.45;125401;1321;114901;-63
2023/11/25 18:26:20;;;;;;;24.60;10.10;;;;;;;1.60;88.99;98980.25;125012;1327;114954;-58
2023/11/25 18:35:14;;;;;;;29.50;14.40;;;;;;;1.55;89.05;98982.39;125501;1301;652575;-58
2023/11/25 18:39:21;;;;;;;31.50;13.50;;;;;;;1.49;88.95;98980.29;127647;1284;126969;-59
2023/11/25 18:43:32;;;;;;;38.10;15.00;;;;;;;1.45;88.96;98983.25;127000;1298;115399;-60
2023/11/25 18:47:32;;;;;;;31.20;14.10;;;;;;;1.41;89.12;98985.98;121208;1299;6684788;-58
2023/11/25 18:56:00;;;;;;;36.10;16.50;;;;;;;1.41;89.34;98986.18;125790;1298;639797;-58
2023/11/25 19:00:03;;;;;;;26.20;13.20;;;;;;;1.40;89.60;98989.41;127902;1281;128868;-57
2023/11/25 19:03:57;;;;;;;;;;;;;;;;;;;;;
2023/11/25 19:08:25;;;;;;;;;;;;;;;;;;;;;
2023/11/25 19:11:20;;;;;;;25.90;12.90;;;;;;;1.38;89.69;98985.23;124207;1313;114889;-58
2023/11/25 19:15:22;;;;;;;29.00;14.80;;;;;;;1.35;89.54;98988.83;124251;1316;115356;-58
2023/11/25 19:19:18;;;;;;;;;;;;;;;;;;;;;
2023/11/25 19:26:09;;;;;;;38.50;16.30;;;;;;;1.21;89.34;99001.25;128802;1283;129020;-59
2023/11/25 19:29:15;;;;;;;31.70;14.60;;;;;;;1.18;89.54;98998.89;128952;1273;114997;-57
2023/11/25 19:33:20;;;;;;;34.60;16.30;;;;;;;1.14;89.40;99001.66;129007;1283;114744;-58
2023/11/25 19:36:48;;;;;;;;;;;;;;;;;;;;;
2023/11/25 19:40:52;;;;;;;44.50;20.50;;;;;;;1.04;89.47;98999.85;128304;1287;114837;-57
2023/11/25 19:44:55;;;;;;;41.20;18.50;;;;;;;1.03;89.88;99004.80;127488;1302;114923;-58
2023/11/25 19:48:57;;;;;;;33.60;17.00;;;;;;;1.02;89.76;99015.55;126044;1296;128984;-57
2023/11/25 19:52:59;;;;;;;30.40;15.50;;;;;;;1.02;90.03;99022.06;125872;1313;114879;-59
2023/11/25 19:56:34;;;;;;;;;;;;;;;;;;;;;
2023/11/25 20:00:38;;;;;;;33.20;17.50;;;;;;;1.06;90.01;99026.88;125906;1293;115570;-58
2023/11/25 20:04:37;;;;;;;;;;;;;;;;;;;;;
2023/11/25 20:08:55;;;;;;;32.10;16.50;;;;;;;1.07;90.43;99033.36;125055;1308;130024;-58
2023/11/25 20:12:56;;;;;;;35.50;17.80;;;;;;;1.09;90.52;99042.62;124501;1329;115033;-55
2023/11/25 20:21:16;;;;;;;33.50;14.60;;;;;;;1.15;90.57;99048.42;126002;1306;636829;-54
2023/11/25 20:25:17;;;;;;;32.30;14.10;;;;;;;1.15;90.25;99058.77;128408;1276;128535;-57
2023/11/25 20:29:18;;;;;;;;;;;;;;;;;;;;;
2023/11/25 20:33:22;;;;;;;28.30;14.00;;;;;;;1.18;90.58;99055.16;123928;1278;5455459;-60
2023/11/25 20:37:26;;;;;;;34.30;15.20;;;;;;;1.22;90.86;99055.21;126672;1289;114864;-57
2023/11/25 20:41:28;;;;;;;24.40;12.70;;;;;;;1.24;90.73;99060.23;125316;1305;114961;-57
2023/11/25 20:45:28;;;;;;;;;;;;;;;;;;;;;
2023/11/25 20:53:48;;;;;;;22.00;11.20;;;;;;;1.36;90.98;99063.04;125658;1308;635706;-58
2023/11/25 20:57:42;;;;;;;;;;;;;;;;;;;;;
2023/11/25 21:01:46;;;;;;;23.60;10.70;;;;;;;1.44;90.92;99064.03;125855;1317;115304;-59
2023/11/25 21:05:48;;;;;;;19.70;12.70;;;;;;;1.46;90.77;99066.96;120897;1310;5429201;-61
2023/11/25 21:09:34;;;;;;;;;;;;;;;;;;;;;
2023/11/25 21:17:52;;;;;;;18.00;9.80;;;;;;;1.61;91.09;99075.95;126324;1289;635616;-59
2023/11/25 21:21:55;;;;;;;;;;;;;;;;;;;;;
2023/11/25 21:25:59;;;;;;;18.80;9.70;;;;;;;1.66;90.91;99076.34;128529;1275;114857;-58
2023/11/25 21:30:02;;;;;;;15.00;8.90;;;;;;;1.69;91.09;99077.65;123341;1303;5431207;-59
2023/11/25 21:34:03;;;;;;;18.80;8.80;;;;;;;1.70;91.18;99078.49;125869;1315;114874;-59
2023/11/25 21:37:54;;;;;;;22.90;8.70;;;;;;;1.74;90.87;99082.05;124873;1308;114929;-59
2023/11/25 21:50:30;;;;;;;21.20;9.60;;;;;;;1.79;90.69;99094.56;125541;1297;637166;-58
2023/11/25 21:54:31;;;;;;;;;;;;;;;;;;;;;
2023/11/25 21:58:35;;;;;;;18.60;9.90;;;;;;;1.73;90.77;99099.15;126016;1308;115284;-60
2023/11/25 22:02:28;;;;;;;;;;;;;;;;;;;;;
2023/11/25 22:10:54;;;;;;;19.30;9.50;;;;;;;1.67;90.93;99106.38;126298;1302;635292;-56
2023/11/25 22:14:55;;;;;;;23.30;9.20;;;;;;;1.64;91.00;99109.83;127741;1285;129987;-57
2023/11/25 22:18:58;;;;;;;22.70;9.40;;;;;;;1.62;91.13;99108.48;127164;1302;114837;-58
2023/11/25 22:23:01;;;;;;;23.90;10.10;;;;;;;1.62;91.37;99112.52;122480;1304;5426224;-66
2023/11/25 22:31:02;;;;;;;;;;;;;;;;;;;;;
2023/11/25 22:35:40;;;;;;;25.00;10.70;;;;;;;1.65;91.05;99119.48;125669;1295;640480;-58
2023/11/25 22:39:43;;;;;;;22.50;9.90;;;;;;;1.63;90.89;99125.36;127213;1286;128940;-58
2023/11/25 22:43:46;;;;;;;17.10;9.40;;;;;;;1.59;91.08;99133.57;126450;1304;114847;-58
2023/11/25 22:47:46;;;;;;;19.10;8.10;;;;;;;1.53;91.04;99134.45;121453;1320;5422015;-58
2023/11/25 22:56:11;;;;;;;12.10;7.90;;;;;;;1.44;91.09;99141.45;126043;1306;636245;-58
2023/11/25 23:00:11;;;;;;;;;;;;;;;;;;;;;
2023/11/25 23:04:36;;;;;;;23.60;7.90;;;;;;;1.31;91.13;99143.59;126701;1295;116461;-59
2023/11/25 23:08:27;;;;;;;9.00;6.70;;;;;;;1.23;90.99;99143.98;122319;1299;5605827;-60
2023/11/25 23:12:28;;;;;;;11.60;7.20;;;;;;;1.20;91.14;99141.09;125842;1305;114986;-58
2023/11/25 23:16:28;;;;;;;8.10;5.60;;;;;;;1.19;91.28;99145.52;125288;1323;114833;-59
2023/11/25 23:24:43;;;;;;;10.80;5.40;;;;;;;1.14;91.12;99154.80;125778;1297;637647;-58
2023/11/25 23:28:46;;;;;;;9.00;5.00;;;;;;;1.11;91.31;99160.71;128123;1277;128413;-58
2023/11/25 23:32:38;;;;;;;;;;;;;;;;;;;;;
2023/11/25 23:36:42;;;;;;;9.70;5.40;;;;;;;1.02;91.18;99167.81;122807;1287;5468286;-57
2023/11/25 23:40:29;;;;;;;9.20;5.00;;;;;;;1.01;91.36;99171.19;126192;1314;114943;-59
2023/11/25 23:44:31;;;;;;;7.70;4.70;;;;;;;1.02;91.41;99176.95;124873;1324;114931;-57
2023/11/25 23:48:27;;;;;;;7.30;4.50;;;;;;;1.02;91.45;99183.64;124020;1332;115190;-59
2023/11/25 23:52:19;;;;;;;7.60;5.10;;;;;;;1.00;91.32;99187.04;124029;1316;128301;-59
